Terminal Aerodrome Forecast
Issued by NWS Green Bay, WI

Home | Current Version | Previous Version | Text Only | Print | Product List | Glossary Off
Versions: 1 2 3 4 5 6 7 8 9 10 11 12 13 14 15 16 17 18 19 20 21 22 23 24 25 26 27 28 29 30 31 32 33 34 35 36 37 38 39 40 41 42 43 44

000
FTUS43 KGRB 212300 RRA
TAFGRB
TAF
KGRB 212341Z 2200/2224 09006KT P6SM SCT015 BKN100
      TEMPO 2200/2203 BKN015 BKN025
     FM220300 VRB03KT 3SM BR VCSH BKN008 BKN040
     FM220700 VRB03KT 1SM BR BKN005
     FM221400 05005KT 4SM BR SCT006 BKN012
     FM221800 07006KT 6SM HZ BKN025 BKN040
     FM222200 07006KT 6SM HZ SCT025=

USA.gov is the U.S. government's official web portal to all federal, state and local government web resources and services.